CDG8806 ZUCK-ZSJN
Flight info
| Callsign | CDG8806 |
|---|---|
| Flight time | 1h 40m |
| Altitude | 31100 |
| Route | OVNUL W677 IGIRO W4 WXI W59 UBSIS |
| Aircraft | B738/M-SDE2E3FGHIRWXY/LB1 |
Departure
| Time | 2026-04-22 15:22 |
|---|---|
| Airport | Chongqing Jiangbei International Airport (ZUCK) |
Arrival
| Time | 2026-04-22 17:03 |
|---|---|
| Airport | Jinan Yaoqiang International Airport (ZSJN) |
| Time | Latitude | Longitude | Altitude | Speed | Heading |
|---|---|---|---|---|---|
| 2026-04-22 14:46 | 29.71883 | 106.65018 | 1370 ft | 0 kts | 107° |
| 2026-04-22 15:11 | 29.71886 | 106.65004 | 1370 ft | 2 kts | 106° |
| 2026-04-22 15:11 | 29.71890 | 106.64989 | 1370 ft | 2 kts | 107° |
| 2026-04-22 15:12 | 29.71895 | 106.64973 | 1370 ft | 2 kts | 106° |
| 2026-04-22 15:12 | 29.71899 | 106.64955 | 1370 ft | 2 kts | 114° |
| 2026-04-22 15:12 | 29.71909 | 106.64944 | 1370 ft | 2 kts | 160° |
| 2026-04-22 15:12 | 29.71922 | 106.64942 | 1370 ft | 0 kts | 192° |
| 2026-04-22 15:13 | 29.71928 | 106.64945 | 1370 ft | 1 kts | 197° |
| 2026-04-22 15:13 | 29.71929 | 106.64945 | 1370 ft | 0 kts | 197° |
| 2026-04-22 15:14 | 29.71927 | 106.64944 | 1370 ft | 1 kts | 195° |
| 2026-04-22 15:15 | 29.71901 | 106.64938 | 1370 ft | 5 kts | 193° |
| 2026-04-22 15:15 | 29.71846 | 106.64920 | 1370 ft | 10 kts | 197° |
| 2026-04-22 15:15 | 29.71765 | 106.64893 | 1370 ft | 12 kts | 197° |
| 2026-04-22 15:15 | 29.71692 | 106.64870 | 1370 ft | 9 kts | 208° |
| 2026-04-22 15:16 | 29.71678 | 106.64806 | 1370 ft | 8 kts | 287° |
| 2026-04-22 15:16 | 29.71695 | 106.64740 | 1369 ft | 8 kts | 286° |
| 2026-04-22 15:16 | 29.71676 | 106.64689 | 1370 ft | 7 kts | 206° |
| 2026-04-22 15:16 | 29.71625 | 106.64671 | 1369 ft | 8 kts | 197° |
| 2026-04-22 15:17 | 29.71554 | 106.64646 | 1369 ft | 12 kts | 197° |
| 2026-04-22 15:17 | 29.71457 | 106.64613 | 1369 ft | 16 kts | 197° |
| 2026-04-22 15:17 | 29.71336 | 106.64571 | 1369 ft | 20 kts | 197° |
| 2026-04-22 15:17 | 29.71188 | 106.64520 | 1369 ft | 23 kts | 197° |
| 2026-04-22 15:18 | 29.71034 | 106.64466 | 1369 ft | 22 kts | 197° |
| 2026-04-22 15:18 | 29.70884 | 106.64414 | 1369 ft | 22 kts | 197° |
| 2026-04-22 15:18 | 29.70739 | 106.64364 | 1369 ft | 21 kts | 197° |
| 2026-04-22 15:18 | 29.70601 | 106.64316 | 1369 ft | 20 kts | 197° |
| 2026-04-22 15:19 | 29.70497 | 106.64280 | 1369 ft | 9 kts | 197° |
| 2026-04-22 15:19 | 29.70444 | 106.64248 | 1369 ft | 8 kts | 242° |
| 2026-04-22 15:19 | 29.70449 | 106.64191 | 1369 ft | 3 kts | 288° |
| 2026-04-22 15:19 | 29.70452 | 106.64180 | 1369 ft | 0 kts | 288° |
| 2026-04-22 15:20 | 29.70454 | 106.64174 | 1369 ft | 1 kts | 288° |
| 2026-04-22 15:20 | 29.70461 | 106.64147 | 1369 ft | 5 kts | 287° |
| 2026-04-22 15:20 | 29.70475 | 106.64097 | 1369 ft | 7 kts | 291° |
| 2026-04-22 15:21 | 29.70518 | 106.64083 | 1369 ft | 7 kts | 16° |
| 2026-04-22 15:21 | 29.70529 | 106.64087 | 1369 ft | 0 kts | 18° |
| 2026-04-22 15:21 | 29.70656 | 106.64130 | 1369 ft | 51 kts | 17° |
| 2026-04-22 15:22 | 29.71225 | 106.64326 | 1369 ft | 117 kts | 17° |
| 2026-04-22 15:22 | 29.72185 | 106.64659 | 1392 ft | 167 kts | 17° |
| 2026-04-22 15:22 | 29.73297 | 106.65044 | 2040 ft | 167 kts | 16° |
| 2026-04-22 15:22 | 29.74402 | 106.65425 | 2720 ft | 169 kts | 16° |
| 2026-04-22 15:23 | 29.75519 | 106.65813 | 3282 ft | 168 kts | 15° |
| 2026-04-22 15:23 | 29.76675 | 106.66207 | 3636 ft | 174 kts | 16° |
| 2026-04-22 15:23 | 29.77836 | 106.66608 | 4046 ft | 175 kts | 16° |
| 2026-04-22 15:23 | 29.78991 | 106.67007 | 4496 ft | 175 kts | 16° |
| 2026-04-22 15:24 | 29.80203 | 106.67422 | 4947 ft | 185 kts | 17° |
| 2026-04-22 15:24 | 29.81460 | 106.67856 | 5412 ft | 195 kts | 17° |
| 2026-04-22 15:24 | 29.82808 | 106.68322 | 5806 ft | 211 kts | 17° |
| 2026-04-22 15:24 | 29.84254 | 106.68822 | 6277 ft | 224 kts | 17° |
| 2026-04-22 15:25 | 29.85814 | 106.69361 | 6757 ft | 239 kts | 17° |
| 2026-04-22 15:25 | 29.87434 | 106.69920 | 7283 ft | 250 kts | 17° |
| 2026-04-22 15:25 | 29.89149 | 106.70513 | 7837 ft | 261 kts | 17° |
| 2026-04-22 15:25 | 29.90893 | 106.71116 | 8515 ft | 266 kts | 17° |
| 2026-04-22 15:26 | 29.92681 | 106.71735 | 9277 ft | 268 kts | 17° |
| 2026-04-22 15:26 | 29.94452 | 106.72348 | 10038 ft | 269 kts | 17° |
| 2026-04-22 15:26 | 29.96262 | 106.72975 | 10566 ft | 279 kts | 17° |
| 2026-04-22 15:26 | 29.98175 | 106.73640 | 10945 ft | 295 kts | 16° |
| 2026-04-22 15:27 | 30.00194 | 106.74341 | 11308 ft | 310 kts | 16° |
| 2026-04-22 15:27 | 30.02332 | 106.75082 | 11703 ft | 325 kts | 16° |
| 2026-04-22 15:27 | 30.04590 | 106.75864 | 12038 ft | 341 kts | 16° |
| 2026-04-22 15:27 | 30.06905 | 106.76664 | 12395 ft | 355 kts | 16° |
| 2026-04-22 15:28 | 30.09311 | 106.77498 | 12915 ft | 364 kts | 15° |
| 2026-04-22 15:28 | 30.11746 | 106.78345 | 13524 ft | 369 kts | 15° |
| 2026-04-22 15:28 | 30.14222 | 106.79207 | 14157 ft | 375 kts | 15° |
| 2026-04-22 15:28 | 30.16730 | 106.80082 | 14825 ft | 379 kts | 15° |
| 2026-04-22 15:29 | 30.19266 | 106.81035 | 15478 ft | 384 kts | 18° |
| 2026-04-22 15:29 | 30.21767 | 106.82206 | 16106 ft | 391 kts | 21° |
| 2026-04-22 15:29 | 30.24270 | 106.83573 | 16715 ft | 396 kts | 24° |
| 2026-04-22 15:30 | 30.29223 | 106.86533 | 17890 ft | 407 kts | 25° |
| 2026-04-22 15:30 | 30.31753 | 106.88073 | 18454 ft | 413 kts | 24° |
| 2026-04-22 15:30 | 30.34313 | 106.89623 | 19105 ft | 415 kts | 24° |
| 2026-04-22 15:30 | 30.36895 | 106.91175 | 19690 ft | 419 kts | 24° |
| 2026-04-22 15:31 | 30.39519 | 106.92741 | 20274 ft | 423 kts | 24° |
| 2026-04-22 15:31 | 30.42148 | 106.94305 | 20824 ft | 428 kts | 23° |
| 2026-04-22 15:31 | 30.44818 | 106.95890 | 21354 ft | 432 kts | 23° |
| 2026-04-22 15:31 | 30.47489 | 106.97477 | 21893 ft | 436 kts | 23° |
| 2026-04-22 15:32 | 30.50188 | 106.99080 | 22422 ft | 440 kts | 23° |
| 2026-04-22 15:32 | 30.52928 | 107.00710 | 22945 ft | 444 kts | 22° |
| 2026-04-22 15:32 | 30.55674 | 107.02356 | 23383 ft | 450 kts | 24° |
| 2026-04-22 15:32 | 30.58419 | 107.04229 | 23809 ft | 457 kts | 28° |
| 2026-04-22 15:33 | 30.61066 | 107.06274 | 24197 ft | 465 kts | 30° |
| 2026-04-22 15:33 | 30.63734 | 107.08469 | 24631 ft | 470 kts | 32° |
| 2026-04-22 15:33 | 30.66370 | 107.10701 | 25003 ft | 476 kts | 32° |
| 2026-04-22 15:33 | 30.69078 | 107.13015 | 25412 ft | 482 kts | 32° |
| 2026-04-22 15:34 | 30.71765 | 107.15315 | 25845 ft | 485 kts | 32° |
| 2026-04-22 15:34 | 30.74514 | 107.17663 | 26201 ft | 491 kts | 32° |
| 2026-04-22 15:34 | 30.77280 | 107.20012 | 26717 ft | 492 kts | 31° |
| 2026-04-22 15:34 | 30.80048 | 107.22349 | 27290 ft | 492 kts | 31° |
| 2026-04-22 15:35 | 30.82788 | 107.24661 | 27802 ft | 492 kts | 31° |
| 2026-04-22 15:35 | 30.85576 | 107.27007 | 28274 ft | 494 kts | 31° |
| 2026-04-22 15:35 | 30.88354 | 107.29341 | 28707 ft | 496 kts | 31° |
| 2026-04-22 15:35 | 30.91165 | 107.31702 | 29177 ft | 497 kts | 30° |
| 2026-04-22 15:36 | 30.93943 | 107.34045 | 29579 ft | 499 kts | 31° |
| 2026-04-22 15:36 | 30.96784 | 107.36446 | 29928 ft | 503 kts | 31° |
| 2026-04-22 15:36 | 30.99598 | 107.38815 | 30446 ft | 503 kts | 30° |
| 2026-04-22 15:36 | 31.02434 | 107.41212 | 30986 ft | 501 kts | 30° |
| 2026-04-22 15:37 | 31.05297 | 107.43530 | 31158 ft | 502 kts | 26° |
| 2026-04-22 15:37 | 31.11315 | 107.47688 | 31154 ft | 500 kts | 22° |
| 2026-04-22 15:38 | 31.17475 | 107.51559 | 31158 ft | 499 kts | 21° |
| 2026-04-22 15:38 | 31.26669 | 107.57340 | 31151 ft | 498 kts | 21° |
| 2026-04-22 15:39 | 31.32753 | 107.61242 | 31151 ft | 499 kts | 21° |
| 2026-04-22 15:39 | 31.38835 | 107.65198 | 31165 ft | 501 kts | 22° |
| 2026-04-22 15:40 | 31.44937 | 107.69173 | 31163 ft | 501 kts | 22° |
| 2026-04-22 15:40 | 31.51040 | 107.73146 | 31173 ft | 501 kts | 22° |
| 2026-04-22 15:41 | 31.57130 | 107.77122 | 31174 ft | 498 kts | 22° |
| 2026-04-22 15:41 | 31.63121 | 107.81280 | 31180 ft | 503 kts | 27° |
| 2026-04-22 15:42 | 31.68787 | 107.86241 | 31182 ft | 511 kts | 33° |
| 2026-04-22 15:42 | 31.74287 | 107.91578 | 31183 ft | 511 kts | 34° |
| 2026-04-22 15:43 | 31.79740 | 107.96979 | 31175 ft | 510 kts | 34° |
| 2026-04-22 15:43 | 31.85130 | 108.02299 | 31189 ft | 508 kts | 33° |
| 2026-04-22 15:44 | 31.90581 | 108.07642 | 31187 ft | 508 kts | 33° |
| 2026-04-22 15:44 | 31.95998 | 108.12932 | 31199 ft | 508 kts | 33° |
| 2026-04-22 15:45 | 32.01441 | 108.18245 | 31206 ft | 505 kts | 33° |
| 2026-04-22 15:45 | 32.06814 | 108.23701 | 31208 ft | 512 kts | 40° |
| 2026-04-22 15:46 | 32.09137 | 108.26904 | 31207 ft | 522 kts | 51° |
| 2026-04-22 15:46 | 32.10954 | 108.30659 | 31209 ft | 526 kts | 64° |
| 2026-04-22 15:46 | 32.13592 | 108.38724 | 31228 ft | 529 kts | 70° |
| 2026-04-22 15:47 | 32.15887 | 108.46968 | 31240 ft | 527 kts | 71° |
| 2026-04-22 15:47 | 32.18132 | 108.55225 | 31257 ft | 531 kts | 70° |
| 2026-04-22 15:48 | 32.20498 | 108.63429 | 31251 ft | 526 kts | 66° |
| 2026-04-22 15:48 | 32.22054 | 108.67326 | 31249 ft | 522 kts | 55° |
| 2026-04-22 15:48 | 32.24252 | 108.70709 | 31244 ft | 517 kts | 40° |
| 2026-04-22 15:49 | 32.26958 | 108.73412 | 31244 ft | 504 kts | 28° |
| 2026-04-22 15:49 | 32.29884 | 108.75692 | 31236 ft | 500 kts | 24° |
| 2026-04-22 15:49 | 32.35827 | 108.79954 | 31223 ft | 499 kts | 22° |
| 2026-04-22 15:50 | 32.41908 | 108.84221 | 31226 ft | 502 kts | 22° |
| 2026-04-22 15:50 | 32.47884 | 108.88451 | 31223 ft | 502 kts | 22° |
| 2026-04-22 15:51 | 32.53913 | 108.92767 | 31219 ft | 502 kts | 23° |
| 2026-04-22 15:51 | 32.59923 | 108.97076 | 31207 ft | 502 kts | 23° |
| 2026-04-22 15:52 | 32.65965 | 109.01421 | 31204 ft | 505 kts | 22° |
| 2026-04-22 15:52 | 32.71969 | 109.05761 | 31198 ft | 502 kts | 22° |
| 2026-04-22 15:53 | 32.77919 | 109.10073 | 31197 ft | 504 kts | 22° |
| 2026-04-22 15:53 | 32.83916 | 109.14420 | 31195 ft | 505 kts | 22° |
| 2026-04-22 15:54 | 32.89883 | 109.18758 | 31200 ft | 503 kts | 22° |
| 2026-04-22 15:54 | 32.95885 | 109.23126 | 31193 ft | 503 kts | 22° |
| 2026-04-22 15:55 | 33.01856 | 109.27492 | 31195 ft | 504 kts | 22° |
| 2026-04-22 15:55 | 33.07823 | 109.31850 | 31206 ft | 499 kts | 22° |
| 2026-04-22 15:56 | 33.13802 | 109.36218 | 31207 ft | 504 kts | 22° |
| 2026-04-22 15:56 | 33.19741 | 109.40564 | 31213 ft | 499 kts | 22° |
| 2026-04-22 15:57 | 33.25660 | 109.44902 | 31223 ft | 501 kts | 22° |
| 2026-04-22 15:57 | 33.31636 | 109.49287 | 31208 ft | 501 kts | 22° |
| 2026-04-22 15:58 | 33.37292 | 109.54302 | 31192 ft | 516 kts | 38° |
| 2026-04-22 15:58 | 33.39547 | 109.57700 | 31191 ft | 531 kts | 53° |
| 2026-04-22 15:58 | 33.41188 | 109.61646 | 31188 ft | 535 kts | 67° |
| 2026-04-22 15:59 | 33.43041 | 109.70267 | 31175 ft | 539 kts | 81° |
| 2026-04-22 15:59 | 33.43982 | 109.79208 | 31171 ft | 539 kts | 84° |
| 2026-04-22 16:00 | 33.44695 | 109.88099 | 31177 ft | 539 kts | 85° |
| 2026-04-22 16:00 | 33.45434 | 109.97048 | 31167 ft | 539 kts | 85° |
| 2026-04-22 16:01 | 33.46235 | 110.05950 | 31166 ft | 539 kts | 84° |
| 2026-04-22 16:01 | 33.47063 | 110.14841 | 31171 ft | 538 kts | 84° |
| 2026-04-22 16:02 | 33.47895 | 110.23762 | 31172 ft | 539 kts | 84° |
| 2026-04-22 16:02 | 33.48732 | 110.32720 | 31169 ft | 539 kts | 84° |
| 2026-04-22 16:03 | 33.50109 | 110.41528 | 31168 ft | 539 kts | 68° |
| 2026-04-22 16:03 | 33.51632 | 110.45534 | 31167 ft | 531 kts | 54° |
| 2026-04-22 16:03 | 33.53811 | 110.49095 | 31168 ft | 522 kts | 41° |
| 2026-04-22 16:04 | 33.59161 | 110.54807 | 31171 ft | 507 kts | 26° |
| 2026-04-22 16:04 | 33.62069 | 110.57063 | 31176 ft | 496 kts | 20° |
| 2026-04-22 16:04 | 33.65143 | 110.58984 | 31178 ft | 492 kts | 15° |
| 2026-04-22 16:05 | 33.71343 | 110.62326 | 31188 ft | 487 kts | 12° |
| 2026-04-22 16:05 | 33.77546 | 110.65606 | 31195 ft | 487 kts | 14° |
| 2026-04-22 16:06 | 33.83747 | 110.69011 | 31183 ft | 492 kts | 14° |
| 2026-04-22 16:06 | 33.89934 | 110.72495 | 31172 ft | 490 kts | 15° |
| 2026-04-22 16:07 | 33.96125 | 110.76050 | 31183 ft | 493 kts | 15° |
| 2026-04-22 16:07 | 34.02260 | 110.79600 | 31169 ft | 487 kts | 15° |
| 2026-04-22 16:08 | 34.08414 | 110.83166 | 31174 ft | 493 kts | 15° |
| 2026-04-22 16:08 | 34.14581 | 110.86764 | 31182 ft | 487 kts | 15° |
| 2026-04-22 16:09 | 34.20734 | 110.90349 | 31159 ft | 487 kts | 15° |
| 2026-04-22 16:09 | 34.26820 | 110.93910 | 31179 ft | 487 kts | 16° |
| 2026-04-22 16:10 | 34.32962 | 110.97472 | 31188 ft | 489 kts | 15° |
| 2026-04-22 16:10 | 34.39027 | 111.01080 | 31167 ft | 488 kts | 20° |
| 2026-04-22 16:11 | 34.41923 | 111.03327 | 31167 ft | 501 kts | 30° |
| 2026-04-22 16:11 | 34.44474 | 111.06307 | 31154 ft | 513 kts | 45° |
| 2026-04-22 16:11 | 34.48541 | 111.13518 | 31179 ft | 523 kts | 53° |
| 2026-04-22 16:12 | 34.52273 | 111.21023 | 31168 ft | 519 kts | 55° |
| 2026-04-22 16:12 | 34.55983 | 111.28616 | 31187 ft | 524 kts | 55° |
| 2026-04-22 16:13 | 34.59742 | 111.36259 | 31149 ft | 519 kts | 54° |
| 2026-04-22 16:13 | 34.63517 | 111.43803 | 31172 ft | 522 kts | 54° |
| 2026-04-22 16:14 | 34.67279 | 111.51274 | 31152 ft | 517 kts | 54° |
| 2026-04-22 16:14 | 34.71037 | 111.58741 | 31154 ft | 518 kts | 54° |
| 2026-04-22 16:15 | 34.74746 | 111.66200 | 31152 ft | 517 kts | 55° |
| 2026-04-22 16:15 | 34.78473 | 111.73673 | 31150 ft | 519 kts | 55° |
| 2026-04-22 16:16 | 34.82203 | 111.81169 | 31139 ft | 514 kts | 55° |
| 2026-04-22 16:16 | 34.85932 | 111.88627 | 31154 ft | 518 kts | 55° |
| 2026-04-22 16:17 | 34.89646 | 111.96086 | 31144 ft | 515 kts | 54° |
| 2026-04-22 16:17 | 34.93371 | 112.03535 | 31124 ft | 513 kts | 54° |
| 2026-04-22 16:18 | 34.97132 | 112.10959 | 31145 ft | 514 kts | 54° |
| 2026-04-22 16:18 | 35.00878 | 112.18393 | 31140 ft | 516 kts | 54° |
| 2026-04-22 16:19 | 35.04610 | 112.25863 | 31141 ft | 515 kts | 55° |
| 2026-04-22 16:19 | 35.08318 | 112.33345 | 31144 ft | 516 kts | 54° |
| 2026-04-22 16:20 | 35.12044 | 112.40798 | 31144 ft | 514 kts | 55° |
| 2026-04-22 16:20 | 35.15730 | 112.48223 | 31147 ft | 514 kts | 55° |
| 2026-04-22 16:21 | 35.19452 | 112.55755 | 31154 ft | 516 kts | 54° |
| 2026-04-22 16:21 | 35.23169 | 112.63280 | 31260 ft | 515 kts | 55° |
| 2026-04-22 16:22 | 35.26853 | 112.70639 | 31142 ft | 506 kts | 56° |
| 2026-04-22 16:22 | 35.28720 | 112.74331 | 31139 ft | 509 kts | 56° |
| 2026-04-22 16:23 | 35.34307 | 112.85415 | 31135 ft | 509 kts | 55° |
| 2026-04-22 16:23 | 35.37986 | 112.92769 | 31131 ft | 508 kts | 56° |
| 2026-04-22 16:24 | 35.43505 | 113.03861 | 31131 ft | 509 kts | 56° |
| 2026-04-22 16:25 | 35.47162 | 113.11279 | 31139 ft | 507 kts | 56° |
| 2026-04-22 16:25 | 35.52659 | 113.22416 | 31149 ft | 507 kts | 56° |
| 2026-04-22 16:26 | 35.56296 | 113.29776 | 31151 ft | 507 kts | 56° |
| 2026-04-22 16:26 | 35.59964 | 113.37184 | 31153 ft | 507 kts | 56° |
| 2026-04-22 16:27 | 35.63625 | 113.44573 | 31162 ft | 505 kts | 55° |
| 2026-04-22 16:27 | 35.67318 | 113.51890 | 31159 ft | 505 kts | 55° |
| 2026-04-22 16:28 | 35.71027 | 113.59207 | 31149 ft | 506 kts | 55° |
| 2026-04-22 16:28 | 35.74726 | 113.66541 | 31135 ft | 504 kts | 55° |
| 2026-04-22 16:29 | 35.78429 | 113.73884 | 31128 ft | 504 kts | 56° |
| 2026-04-22 16:29 | 35.82117 | 113.81216 | 31130 ft | 505 kts | 56° |
| 2026-04-22 16:30 | 35.85791 | 113.88542 | 31119 ft | 503 kts | 56° |
| 2026-04-22 16:30 | 35.89477 | 113.95911 | 31130 ft | 505 kts | 56° |
| 2026-04-22 16:31 | 35.93163 | 114.03301 | 31116 ft | 504 kts | 56° |
| 2026-04-22 16:31 | 35.96834 | 114.10680 | 31112 ft | 504 kts | 56° |
| 2026-04-22 16:32 | 36.00501 | 114.18066 | 31119 ft | 503 kts | 56° |
| 2026-04-22 16:32 | 36.04190 | 114.25511 | 31119 ft | 503 kts | 56° |
| 2026-04-22 16:33 | 36.07886 | 114.32987 | 31116 ft | 503 kts | 56° |
| 2026-04-22 16:33 | 36.11527 | 114.40368 | 31124 ft | 500 kts | 56° |
| 2026-04-22 16:34 | 36.15134 | 114.47695 | 31113 ft | 502 kts | 56° |
| 2026-04-22 16:34 | 36.18770 | 114.55093 | 31103 ft | 501 kts | 56° |
| 2026-04-22 16:35 | 36.22373 | 114.62455 | 31111 ft | 500 kts | 56° |
| 2026-04-22 16:35 | 36.25940 | 114.69760 | 31105 ft | 498 kts | 57° |
| 2026-04-22 16:36 | 36.29534 | 114.77151 | 31100 ft | 499 kts | 57° |
| 2026-04-22 16:36 | 36.33041 | 114.84525 | 31108 ft | 499 kts | 58° |
| 2026-04-22 16:37 | 36.36161 | 114.92279 | 31107 ft | 502 kts | 68° |
| 2026-04-22 16:37 | 36.38380 | 115.00461 | 31106 ft | 502 kts | 74° |
| 2026-04-22 16:38 | 36.40207 | 115.08776 | 31093 ft | 500 kts | 76° |
| 2026-04-22 16:38 | 36.41963 | 115.17175 | 31096 ft | 501 kts | 76° |
| 2026-04-22 16:39 | 36.44054 | 115.25399 | 31102 ft | 501 kts | 68° |
| 2026-04-22 16:39 | 36.46781 | 115.33330 | 31107 ft | 501 kts | 64° |
| 2026-04-22 16:40 | 36.49686 | 115.41188 | 31090 ft | 499 kts | 64° |
| 2026-04-22 16:41 | 36.54002 | 115.53010 | 31094 ft | 500 kts | 64° |
| 2026-04-22 16:41 | 36.56826 | 115.60909 | 31107 ft | 502 kts | 65° |
| 2026-04-22 16:42 | 36.59628 | 115.68832 | 30786 ft | 503 kts | 65° |
| 2026-04-22 16:42 | 36.61048 | 115.72849 | 30329 ft | 502 kts | 66° |
| 2026-04-22 16:42 | 36.62436 | 115.76794 | 29709 ft | 498 kts | 66° |
| 2026-04-22 16:42 | 36.63806 | 115.80707 | 29183 ft | 494 kts | 66° |
| 2026-04-22 16:43 | 36.65169 | 115.84618 | 28624 ft | 489 kts | 66° |
| 2026-04-22 16:43 | 36.66501 | 115.88433 | 28034 ft | 486 kts | 66° |
| 2026-04-22 16:43 | 36.67855 | 115.92306 | 27437 ft | 482 kts | 66° |
| 2026-04-22 16:43 | 36.69173 | 115.96079 | 26859 ft | 478 kts | 66° |
| 2026-04-22 16:44 | 36.70499 | 115.99882 | 26249 ft | 475 kts | 66° |
| 2026-04-22 16:44 | 36.71802 | 116.03619 | 25652 ft | 471 kts | 66° |
| 2026-04-22 16:44 | 36.73092 | 116.07313 | 25062 ft | 467 kts | 66° |
| 2026-04-22 16:44 | 36.74379 | 116.11011 | 24469 ft | 463 kts | 66° |
| 2026-04-22 16:45 | 36.75644 | 116.14655 | 23879 ft | 459 kts | 66° |
| 2026-04-22 16:45 | 36.76905 | 116.18291 | 23278 ft | 456 kts | 66° |
| 2026-04-22 16:45 | 36.78162 | 116.21922 | 22687 ft | 453 kts | 66° |
| 2026-04-22 16:45 | 36.79291 | 116.25530 | 22081 ft | 450 kts | 71° |
| 2026-04-22 16:46 | 36.80102 | 116.29255 | 21472 ft | 446 kts | 78° |
| 2026-04-22 16:46 | 36.80553 | 116.33064 | 20875 ft | 442 kts | 84° |
| 2026-04-22 16:46 | 36.80797 | 116.36857 | 20277 ft | 438 kts | 86° |
| 2026-04-22 16:46 | 36.80938 | 116.40597 | 19687 ft | 434 kts | 87° |
| 2026-04-22 16:47 | 36.81038 | 116.44350 | 19079 ft | 429 kts | 88° |
| 2026-04-22 16:47 | 36.81120 | 116.48020 | 18488 ft | 424 kts | 88° |
| 2026-04-22 16:47 | 36.81198 | 116.51652 | 17891 ft | 419 kts | 87° |
| 2026-04-22 16:47 | 36.81282 | 116.55286 | 17291 ft | 414 kts | 87° |
| 2026-04-22 16:48 | 36.81374 | 116.58843 | 16691 ft | 409 kts | 86° |
| 2026-04-22 16:48 | 36.81474 | 116.62375 | 16102 ft | 404 kts | 86° |
| 2026-04-22 16:48 | 36.81579 | 116.65838 | 15519 ft | 400 kts | 86° |
| 2026-04-22 16:48 | 36.81686 | 116.69244 | 14935 ft | 395 kts | 86° |
| 2026-04-22 16:49 | 36.81795 | 116.72662 | 14351 ft | 390 kts | 85° |
| 2026-04-22 16:49 | 36.81902 | 116.75986 | 13778 ft | 386 kts | 85° |
| 2026-04-22 16:49 | 36.82010 | 116.79336 | 13185 ft | 381 kts | 85° |
| 2026-04-22 16:49 | 36.82115 | 116.82607 | 12635 ft | 376 kts | 85° |
| 2026-04-22 16:50 | 36.82212 | 116.85730 | 12335 ft | 351 kts | 85° |
| 2026-04-22 16:50 | 36.82299 | 116.88689 | 12227 ft | 323 kts | 85° |
| 2026-04-22 16:50 | 36.82378 | 116.91380 | 12066 ft | 301 kts | 85° |
| 2026-04-22 16:50 | 36.82447 | 116.93921 | 11697 ft | 289 kts | 85° |
| 2026-04-22 16:51 | 36.82499 | 116.96375 | 11407 ft | 280 kts | 87° |
| 2026-04-22 16:51 | 36.82335 | 116.98811 | 11223 ft | 284 kts | 101° |
| 2026-04-22 16:51 | 36.81467 | 117.01037 | 10901 ft | 289 kts | 127° |
| 2026-04-22 16:51 | 36.79910 | 117.02602 | 10549 ft | 291 kts | 151° |
| 2026-04-22 16:52 | 36.78005 | 117.03439 | 10199 ft | 292 kts | 166° |
| 2026-04-22 16:52 | 36.75997 | 117.03706 | 9853 ft | 292 kts | 176° |
| 2026-04-22 16:52 | 36.73960 | 117.03700 | 9496 ft | 291 kts | 179° |
| 2026-04-22 16:52 | 36.71948 | 117.03632 | 9143 ft | 289 kts | 179° |
| 2026-04-22 16:53 | 36.69948 | 117.03579 | 8793 ft | 287 kts | 179° |
| 2026-04-22 16:53 | 36.67945 | 117.03554 | 8442 ft | 285 kts | 178° |
| 2026-04-22 16:53 | 36.65972 | 117.03548 | 8097 ft | 283 kts | 178° |
| 2026-04-22 16:53 | 36.64008 | 117.03552 | 7750 ft | 281 kts | 178° |
| 2026-04-22 16:54 | 36.62062 | 117.03554 | 7408 ft | 279 kts | 178° |
| 2026-04-22 16:54 | 36.60148 | 117.03554 | 7203 ft | 272 kts | 178° |
| 2026-04-22 16:54 | 36.58288 | 117.03629 | 7121 ft | 258 kts | 171° |
| 2026-04-22 16:54 | 36.56627 | 117.04188 | 7037 ft | 241 kts | 146° |
| 2026-04-22 16:55 | 36.55463 | 117.05594 | 6920 ft | 229 kts | 117° |
| 2026-04-22 16:55 | 36.54915 | 117.07414 | 6640 ft | 225 kts | 98° |
| 2026-04-22 16:55 | 36.54776 | 117.09315 | 6366 ft | 220 kts | 89° |
| 2026-04-22 16:55 | 36.54789 | 117.11214 | 6126 ft | 221 kts | 88° |
| 2026-04-22 16:56 | 36.54816 | 117.13111 | 5880 ft | 220 kts | 88° |
| 2026-04-22 16:56 | 36.54829 | 117.15031 | 5632 ft | 220 kts | 89° |
| 2026-04-22 16:56 | 36.54835 | 117.16923 | 5391 ft | 218 kts | 88° |
| 2026-04-22 16:56 | 36.55010 | 117.18758 | 5146 ft | 213 kts | 71° |
| 2026-04-22 16:57 | 36.55772 | 117.20270 | 4921 ft | 209 kts | 41° |
| 2026-04-22 16:57 | 36.57061 | 117.21132 | 4700 ft | 211 kts | 18° |
| 2026-04-22 16:57 | 36.58491 | 117.21472 | 4479 ft | 211 kts | 7° |
| 2026-04-22 16:57 | 36.59963 | 117.21578 | 4254 ft | 211 kts | 3° |
| 2026-04-22 16:58 | 36.61428 | 117.21596 | 4031 ft | 211 kts | 1° |
| 2026-04-22 16:58 | 36.62875 | 117.21590 | 3904 ft | 201 kts | 1° |
| 2026-04-22 16:58 | 36.64238 | 117.21592 | 3900 ft | 189 kts | 2° |
| 2026-04-22 16:58 | 36.65568 | 117.21596 | 3846 ft | 191 kts | 1° |
| 2026-04-22 16:59 | 36.66902 | 117.21592 | 3573 ft | 196 kts | 1° |
| 2026-04-22 16:59 | 36.68284 | 117.21596 | 3232 ft | 196 kts | 1° |
| 2026-04-22 16:59 | 36.69630 | 117.21598 | 2961 ft | 194 kts | 1° |
| 2026-04-22 16:59 | 36.70955 | 117.21593 | 2785 ft | 185 kts | 0° |
| 2026-04-22 17:00 | 36.72232 | 117.21594 | 2480 ft | 174 kts | 0° |
| 2026-04-22 17:00 | 36.74520 | 117.21591 | 2044 ft | 161 kts | 359° |
| 2026-04-22 17:00 | 36.75635 | 117.21596 | 1814 ft | 162 kts | 360° |
| 2026-04-22 17:01 | 36.76763 | 117.21612 | 1572 ft | 159 kts | 0° |
| 2026-04-22 17:01 | 36.77858 | 117.21622 | 1336 ft | 158 kts | 359° |
| 2026-04-22 17:01 | 36.78960 | 117.21632 | 1142 ft | 156 kts | 359° |
| 2026-04-22 17:01 | 36.80044 | 117.21622 | 923 ft | 155 kts | 358° |
| 2026-04-22 17:02 | 36.81133 | 117.21594 | 710 ft | 156 kts | 359° |
| 2026-04-22 17:02 | 36.82219 | 117.21598 | 483 ft | 154 kts | 359° |
| 2026-04-22 17:02 | 36.83284 | 117.21605 | 276 ft | 154 kts | 360° |
| 2026-04-22 17:02 | 36.84352 | 117.21602 | 95 ft | 152 kts | 359° |
| 2026-04-22 17:03 | 36.85239 | 117.21596 | 83 ft | 90 kts | 1° |
| 2026-04-22 17:03 | 36.85638 | 117.21599 | 83 ft | 28 kts | 360° |
| 2026-04-22 17:03 | 36.85796 | 117.21597 | 83 ft | 18 kts | 357° |
| 2026-04-22 17:03 | 36.85916 | 117.21554 | 83 ft | 17 kts | 339° |
| 2026-04-22 17:04 | 36.86025 | 117.21485 | 83 ft | 17 kts | 326° |
| 2026-04-22 17:04 | 36.86114 | 117.21419 | 83 ft | 10 kts | 330° |
| 2026-04-22 17:04 | 36.86181 | 117.21381 | 83 ft | 10 kts | 338° |
| 2026-04-22 17:04 | 36.86221 | 117.21319 | 83 ft | 9 kts | 269° |
| 2026-04-22 17:05 | 36.86174 | 117.21272 | 83 ft | 9 kts | 179° |
| 2026-04-22 17:05 | 36.86102 | 117.21274 | 83 ft | 12 kts | 179° |
| 2026-04-22 17:05 | 36.86001 | 117.21274 | 83 ft | 16 kts | 179° |
| 2026-04-22 17:05 | 36.85869 | 117.21274 | 83 ft | 20 kts | 180° |
| 2026-04-22 17:06 | 36.85729 | 117.21274 | 83 ft | 19 kts | 180° |
| 2026-04-22 17:06 | 36.85593 | 117.21273 | 83 ft | 19 kts | 180° |
| 2026-04-22 17:06 | 36.85459 | 117.21274 | 83 ft | 17 kts | 179° |
| 2026-04-22 17:06 | 36.85377 | 117.21259 | 83 ft | 9 kts | 230° |
| 2026-04-22 17:07 | 36.85349 | 117.21189 | 83 ft | 9 kts | 245° |
| 2026-04-22 17:07 | 36.85320 | 117.21110 | 83 ft | 10 kts | 244° |
| 2026-04-22 17:07 | 36.85263 | 117.21074 | 83 ft | 9 kts | 179° |
| 2026-04-22 17:07 | 36.85192 | 117.21074 | 83 ft | 11 kts | 180° |
| 2026-04-22 17:08 | 36.85108 | 117.21073 | 83 ft | 12 kts | 180° |
| 2026-04-22 17:08 | 36.85022 | 117.21073 | 83 ft | 12 kts | 180° |
| 2026-04-22 17:08 | 36.84957 | 117.21069 | 83 ft | 7 kts | 200° |
| 2026-04-22 17:08 | 36.84923 | 117.21027 | 83 ft | 6 kts | 234° |
| 2026-04-22 17:09 | 36.84896 | 117.20978 | 83 ft | 5 kts | 236° |
| 2026-04-22 17:09 | 36.84868 | 117.20952 | 83 ft | 5 kts | 205° |
| 2026-04-22 17:09 | 36.84851 | 117.20942 | 83 ft | 1 kts | 205° |
| 2026-04-22 17:09 | 36.84843 | 117.20937 | 83 ft | 0 kts | 205° |
| 2026-04-22 17:10 | 36.84841 | 117.20936 | 83 ft | 0 kts | 204° |